sensor_id;sensor_type;location;lat;lon;timestamp;P1;durP1;ratioP1;P2;durP2;ratioP2
32130;SDS011;18639;50.716;7.086;2024-03-23T00:55:28;7.72;;;2.85;;
32130;SDS011;18639;50.716;7.086;2024-03-23T00:57:54;10.43;;;2.85;;
32130;SDS011;18639;50.716;7.086;2024-03-23T01:00:19;6.35;;;3.08;;
32130;SDS011;18639;50.716;7.086;2024-03-23T01:02:44;12.85;;;2.88;;
32130;SDS011;18639;50.716;7.086;2024-03-23T01:05:10;9.48;;;3.70;;
32130;SDS011;18639;50.716;7.086;2024-03-23T01:07:35;7.90;;;2.80;;
32130;SDS011;18639;50.716;7.086;2024-03-23T01:10:00;8.43;;;2.38;;
32130;SDS011;18639;50.716;7.086;2024-03-23T01:12:25;9.73;;;3.28;;
32130;SDS011;18639;50.716;7.086;2024-03-23T01:14:51;7.53;;;3.22;;
32130;SDS011;18639;50.716;7.086;2024-03-23T01:17:16;7.90;;;2.95;;
32130;SDS011;18639;50.716;7.086;2024-03-23T01:19:41;12.10;;;3.50;;
32130;SDS011;18639;50.716;7.086;2024-03-23T01:22:07;11.82;;;3.72;;
32130;SDS011;18639;50.716;7.086;2024-03-23T01:24:34;7.45;;;3.00;;
32130;SDS011;18639;50.716;7.086;2024-03-23T01:27:00;7.28;;;2.75;;
32130;SDS011;18639;50.716;7.086;2024-03-23T01:29:25;8.90;;;3.35;;
32130;SDS011;18639;50.716;7.086;2024-03-23T01:31:51;11.10;;;3.38;;
32130;SDS011;18639;50.716;7.086;2024-03-23T01:34:16;7.88;;;3.20;;
32130;SDS011;18639;50.716;7.086;2024-03-23T01:36:41;9.55;;;3.15;;
32130;SDS011;18639;50.716;7.086;2024-03-23T01:39:07;9.45;;;2.78;;
32130;SDS011;18639;50.716;7.086;2024-03-23T01:41:34;9.40;;;2.78;;
32130;SDS011;18639;50.716;7.086;2024-03-23T01:44:00;8.70;;;3.42;;
32130;SDS011;18639;50.716;7.086;2024-03-23T01:46:30;9.80;;;3.15;;
32130;SDS011;18639;50.716;7.086;2024-03-23T01:48:55;11.95;;;3.17;;
32130;SDS011;18639;50.716;7.086;2024-03-23T01:51:20;8.10;;;2.95;;
32130;SDS011;18639;50.716;7.086;2024-03-23T01:53:45;8.10;;;3.05;;
32130;SDS011;18639;50.716;7.086;2024-03-23T01:56:11;8.48;;;2.78;;
32130;SDS011;18639;50.716;7.086;2024-03-23T01:58:38;6.13;;;2.47;;
32130;SDS011;18639;50.716;7.086;2024-03-23T02:01:03;5.97;;;2.45;;
32130;SDS011;18639;50.716;7.086;2024-03-23T02:03:29;8.40;;;2.83;;
32130;SDS011;18639;50.716;7.086;2024-03-23T02:05:54;7.03;;;2.28;;
32130;SDS011;18639;50.716;7.086;2024-03-23T02:08:21;9.48;;;2.80;;
32130;SDS011;18639;50.716;7.086;2024-03-23T02:10:48;6.47;;;2.28;;
32130;SDS011;18639;50.716;7.086;2024-03-23T02:13:14;7.07;;;2.60;;
32130;SDS011;18639;50.716;7.086;2024-03-23T02:15:40;10.18;;;3.15;;
32130;SDS011;18639;50.716;7.086;2024-03-23T02:18:07;5.10;;;2.00;;
32130;SDS011;18639;50.716;7.086;2024-03-23T02:20:33;7.97;;;1.90;;
32130;SDS011;18639;50.716;7.086;2024-03-23T02:22:59;3.53;;;1.67;;
32130;SDS011;18639;50.716;7.086;2024-03-23T02:25:24;4.57;;;1.40;;
32130;SDS011;18639;50.716;7.086;2024-03-23T02:27:49;2.58;;;1.23;;
32130;SDS011;18639;50.716;7.086;2024-03-23T02:30:14;4.70;;;2.13;;
32130;SDS011;18639;50.716;7.086;2024-03-23T02:32:40;2.05;;;1.20;;
32130;SDS011;18639;50.716;7.086;2024-03-23T02:35:05;4.85;;;1.10;;
32130;SDS011;18639;50.716;7.086;2024-03-23T02:37:31;3.92;;;1.27;;
32130;SDS011;18639;50.716;7.086;2024-03-23T02:39:57;4.15;;;1.45;;
32130;SDS011;18639;50.716;7.086;2024-03-23T02:42:22;7.18;;;1.55;;
32130;SDS011;18639;50.716;7.086;2024-03-23T02:44:48;2.08;;;1.10;;
32130;SDS011;18639;50.716;7.086;2024-03-23T02:47:13;4.93;;;1.50;;
32130;SDS011;18639;50.716;7.086;2024-03-23T02:49:38;7.97;;;1.95;;
32130;SDS011;18639;50.716;7.086;2024-03-23T02:52:04;5.82;;;1.95;;
32130;SDS011;18639;50.716;7.086;2024-03-23T02:54:29;5.68;;;1.88;;
32130;SDS011;18639;50.716;7.086;2024-03-23T02:56:54;7.72;;;2.97;;
32130;SDS011;18639;50.716;7.086;2024-03-23T02:59:20;6.10;;;2.35;;
32130;SDS011;18639;50.716;7.086;2024-03-23T03:01:45;7.40;;;2.50;;
32130;SDS011;18639;50.716;7.086;2024-03-23T03:04:10;4.35;;;1.75;;
32130;SDS011;18639;50.716;7.086;2024-03-23T03:06:35;9.10;;;2.42;;
32130;SDS011;18639;50.716;7.086;2024-03-23T03:09:01;2.50;;;1.20;;
32130;SDS011;18639;50.716;7.086;2024-03-23T03:11:26;3.40;;;1.00;;
32130;SDS011;18639;50.716;7.086;2024-03-23T03:13:51;0.90;;;0.52;;
32130;SDS011;18639;50.716;7.086;2024-03-23T03:16:17;1.08;;;0.60;;
32130;SDS011;18639;50.716;7.086;2024-03-23T03:18:42;4.28;;;0.75;;
32130;SDS011;18639;50.716;7.086;2024-03-23T03:21:08;0.73;;;0.63;;
32130;SDS011;18639;50.716;7.086;2024-03-23T03:23:38;2.17;;;0.47;;
32130;SDS011;18639;50.716;7.086;2024-03-23T03:26:05;0.85;;;0.43;;
32130;SDS011;18639;50.716;7.086;2024-03-23T03:28:31;2.42;;;0.70;;
32130;SDS011;18639;50.716;7.086;2024-03-23T03:30:57;0.65;;;0.60;;
32130;SDS011;18639;50.716;7.086;2024-03-23T03:33:23;3.80;;;1.08;;
32130;SDS011;18639;50.716;7.086;2024-03-23T03:35:48;0.93;;;0.70;;
32130;SDS011;18639;50.716;7.086;2024-03-23T03:38:13;1.20;;;0.50;;
32130;SDS011;18639;50.716;7.086;2024-03-23T03:40:39;1.52;;;1.00;;
32130;SDS011;18639;50.716;7.086;2024-03-23T03:43:04;1.10;;;0.57;;
32130;SDS011;18639;50.716;7.086;2024-03-23T03:45:30;0.70;;;0.50;;
32130;SDS011;18639;50.716;7.086;2024-03-23T03:47:55;1.08;;;0.50;;
32130;SDS011;18639;50.716;7.086;2024-03-23T03:50:21;1.77;;;0.82;;
32130;SDS011;18639;50.716;7.086;2024-03-23T03:52:47;1.17;;;0.70;;
32130;SDS011;18639;50.716;7.086;2024-03-23T03:55:13;1.40;;;0.70;;
32130;SDS011;18639;50.716;7.086;2024-03-23T03:57:39;2.47;;;0.63;;
32130;SDS011;18639;50.716;7.086;2024-03-23T04:00:05;7.07;;;0.95;;
32130;SDS011;18639;50.716;7.086;2024-03-23T04:02:31;2.45;;;0.93;;
32130;SDS011;18639;50.716;7.086;2024-03-23T04:04:56;1.48;;;0.60;;
32130;SDS011;18639;50.716;7.086;2024-03-23T04:07:22;3.17;;;1.45;;
32130;SDS011;18639;50.716;7.086;2024-03-23T04:09:48;1.00;;;0.90;;
32130;SDS011;18639;50.716;7.086;2024-03-23T04:12:14;1.30;;;0.70;;
32130;SDS011;18639;50.716;7.086;2024-03-23T04:14:40;1.52;;;0.70;;
32130;SDS011;18639;50.716;7.086;2024-03-23T04:17:05;5.22;;;1.38;;
32130;SDS011;18639;50.716;7.086;2024-03-23T04:19:31;1.70;;;0.80;;
32130;SDS011;18639;50.716;7.086;2024-03-23T04:21:56;0.80;;;0.65;;
32130;SDS011;18639;50.716;7.086;2024-03-23T04:24:22;1.88;;;0.60;;
32130;SDS011;18639;50.716;7.086;2024-03-23T04:26:47;5.55;;;0.82;;
32130;SDS011;18639;50.716;7.086;2024-03-23T04:29:12;1.55;;;0.68;;
32130;SDS011;18639;50.716;7.086;2024-03-23T04:31:38;1.67;;;0.73;;
32130;SDS011;18639;50.716;7.086;2024-03-23T04:34:03;6.43;;;0.70;;
32130;SDS011;18639;50.716;7.086;2024-03-23T04:36:29;3.60;;;0.55;;
32130;SDS011;18639;50.716;7.086;2024-03-23T04:38:55;3.22;;;0.60;;
32130;SDS011;18639;50.716;7.086;2024-03-23T04:41:21;0.57;;;0.57;;
32130;SDS011;18639;50.716;7.086;2024-03-23T04:43:46;1.25;;;0.80;;
32130;SDS011;18639;50.716;7.086;2024-03-23T04:46:12;0.98;;;0.40;;
32130;SDS011;18639;50.716;7.086;2024-03-23T04:48:37;0.75;;;0.52;;
32130;SDS011;18639;50.716;7.086;2024-03-23T04:51:02;1.90;;;0.70;;
32130;SDS011;18639;50.716;7.086;2024-03-23T04:53:28;2.33;;;0.60;;
32130;SDS011;18639;50.716;7.086;2024-03-23T04:55:56;2.30;;;0.93;;
32130;SDS011;18639;50.716;7.086;2024-03-23T04:58:24;2.85;;;1.33;;
32130;SDS011;18639;50.716;7.086;2024-03-23T05:00:56;0.40;;;0.40;;
32130;SDS011;18639;50.716;7.086;2024-03-23T05:03:22;2.53;;;0.80;;
32130;SDS011;18639;50.716;7.086;2024-03-23T05:05:48;3.65;;;0.77;;
32130;SDS011;18639;50.716;7.086;2024-03-23T05:08:14;1.83;;;0.90;;
32130;SDS011;18639;50.716;7.086;2024-03-23T05:10:41;3.40;;;1.17;;
32130;SDS011;18639;50.716;7.086;2024-03-23T05:13:06;3.92;;;0.88;;
32130;SDS011;18639;50.716;7.086;2024-03-23T05:15:31;2.33;;;0.82;;
32130;SDS011;18639;50.716;7.086;2024-03-23T05:17:57;2.30;;;0.90;;
32130;SDS011;18639;50.716;7.086;2024-03-23T05:20:22;4.90;;;0.80;;
32130;SDS011;18639;50.716;7.086;2024-03-23T05:22:48;1.77;;;0.70;;
32130;SDS011;18639;50.716;7.086;2024-03-23T05:25:13;1.52;;;0.98;;
32130;SDS011;18639;50.716;7.086;2024-03-23T05:27:38;2.40;;;1.00;;
32130;SDS011;18639;50.716;7.086;2024-03-23T05:30:04;1.38;;;0.60;;
32130;SDS011;18639;50.716;7.086;2024-03-23T05:32:30;0.82;;;0.55;;
32130;SDS011;18639;50.716;7.086;2024-03-23T05:34:56;1.17;;;0.80;;
32130;SDS011;18639;50.716;7.086;2024-03-23T05:37:22;3.92;;;0.75;;
32130;SDS011;18639;50.716;7.086;2024-03-23T05:39:47;1.27;;;0.68;;
32130;SDS011;18639;50.716;7.086;2024-03-23T05:42:18;0.88;;;0.52;;
32130;SDS011;18639;50.716;7.086;2024-03-23T05:44:47;1.52;;;0.90;;
32130;SDS011;18639;50.716;7.086;2024-03-23T05:47:12;1.00;;;0.60;;
32130;SDS011;18639;50.716;7.086;2024-03-23T05:49:41;2.47;;;0.90;;
32130;SDS011;18639;50.716;7.086;2024-03-23T05:52:11;1.15;;;0.60;;
32130;SDS011;18639;50.716;7.086;2024-03-23T05:54:36;1.95;;;0.60;;
32130;SDS011;18639;50.716;7.086;2024-03-23T05:57:02;4.80;;;0.70;;
32130;SDS011;18639;50.716;7.086;2024-03-23T05:59:28;5.75;;;0.82;;
32130;SDS011;18639;50.716;7.086;2024-03-23T06:01:53;2.17;;;0.60;;
32130;SDS011;18639;50.716;7.086;2024-03-23T06:04:18;1.27;;;0.60;;
32130;SDS011;18639;50.716;7.086;2024-03-23T06:06:44;3.97;;;0.65;;
32130;SDS011;18639;50.716;7.086;2024-03-23T06:09:09;1.88;;;0.70;;
32130;SDS011;18639;50.716;7.086;2024-03-23T06:11:34;4.53;;;0.93;;
32130;SDS011;18639;50.716;7.086;2024-03-23T06:13:59;0.70;;;0.50;;
32130;SDS011;18639;50.716;7.086;2024-03-23T06:16:25;6.13;;;0.82;;
32130;SDS011;18639;50.716;7.086;2024-03-23T06:18:52;1.85;;;0.60;;
32130;SDS011;18639;50.716;7.086;2024-03-23T06:21:17;1.02;;;0.55;;
32130;SDS011;18639;50.716;7.086;2024-03-23T06:23:42;1.73;;;0.52;;
32130;SDS011;18639;50.716;7.086;2024-03-23T06:26:07;1.05;;;0.80;;
32130;SDS011;18639;50.716;7.086;2024-03-23T06:28:33;1.95;;;0.77;;
32130;SDS011;18639;50.716;7.086;2024-03-23T06:30:59;4.07;;;1.10;;
32130;SDS011;18639;50.716;7.086;2024-03-23T06:33:24;2.22;;;1.05;;
32130;SDS011;18639;50.716;7.086;2024-03-23T06:35:50;2.08;;;0.70;;
32130;SDS011;18639;50.716;7.086;2024-03-23T06:38:17;2.95;;;1.13;;
32130;SDS011;18639;50.716;7.086;2024-03-23T06:40:42;3.30;;;0.60;;
32130;SDS011;18639;50.716;7.086;2024-03-23T06:43:07;1.00;;;0.70;;
32130;SDS011;18639;50.716;7.086;2024-03-23T06:45:33;0.75;;;0.60;;
32130;SDS011;18639;50.716;7.086;2024-03-23T06:47:59;6.07;;;1.00;;
32130;SDS011;18639;50.716;7.086;2024-03-23T06:50:24;2.47;;;0.90;;
32130;SDS011;18639;50.716;7.086;2024-03-23T06:52:50;2.15;;;0.80;;
32130;SDS011;18639;50.716;7.086;2024-03-23T06:55:15;2.25;;;0.85;;
32130;SDS011;18639;50.716;7.086;2024-03-23T06:57:40;1.88;;;0.70;;
32130;SDS011;18639;50.716;7.086;2024-03-23T07:00:06;1.50;;;0.70;;
32130;SDS011;18639;50.716;7.086;2024-03-23T07:02:35;5.47;;;0.80;;
32130;SDS011;18639;50.716;7.086;2024-03-23T07:05:00;8.50;;;0.93;;
32130;SDS011;18639;50.716;7.086;2024-03-23T07:07:25;3.22;;;1.10;;
32130;SDS011;18639;50.716;7.086;2024-03-23T07:09:52;5.78;;;0.90;;
32130;SDS011;18639;50.716;7.086;2024-03-23T07:12:17;1.63;;;0.73;;
32130;SDS011;18639;50.716;7.086;2024-03-23T07:14:43;3.40;;;1.50;;
32130;SDS011;18639;50.716;7.086;2024-03-23T07:17:08;5.70;;;1.00;;
32130;SDS011;18639;50.716;7.086;2024-03-23T07:19:33;3.63;;;1.20;;
32130;SDS011;18639;50.716;7.086;2024-03-23T07:21:58;1.05;;;0.77;;
32130;SDS011;18639;50.716;7.086;2024-03-23T07:24:24;4.05;;;1.27;;
32130;SDS011;18639;50.716;7.086;2024-03-23T07:26:49;3.65;;;0.70;;
32130;SDS011;18639;50.716;7.086;2024-03-23T07:29:16;2.05;;;0.90;;
32130;SDS011;18639;50.716;7.086;2024-03-23T07:31:41;3.20;;;1.42;;
32130;SDS011;18639;50.716;7.086;2024-03-23T07:34:07;8.68;;;1.40;;
32130;SDS011;18639;50.716;7.086;2024-03-23T07:36:32;1.65;;;0.98;;
32130;SDS011;18639;50.716;7.086;2024-03-23T07:38:57;2.20;;;1.00;;
32130;SDS011;18639;50.716;7.086;2024-03-23T07:41:22;3.53;;;1.42;;
32130;SDS011;18639;50.716;7.086;2024-03-23T07:43:48;2.28;;;1.08;;
32130;SDS011;18639;50.716;7.086;2024-03-23T07:46:15;8.02;;;1.42;;
32130;SDS011;18639;50.716;7.086;2024-03-23T07:48:41;4.25;;;1.10;;
32130;SDS011;18639;50.716;7.086;2024-03-23T07:51:16;4.38;;;1.30;;
32130;SDS011;18639;50.716;7.086;2024-03-23T07:53:44;2.63;;;1.48;;
32130;SDS011;18639;50.716;7.086;2024-03-23T07:56:13;3.22;;;1.42;;
32130;SDS011;18639;50.716;7.086;2024-03-23T07:58:43;3.40;;;1.45;;
32130;SDS011;18639;50.716;7.086;2024-03-23T08:01:10;2.30;;;1.27;;
32130;SDS011;18639;50.716;7.086;2024-03-23T08:03:37;1.42;;;1.23;;
32130;SDS011;18639;50.716;7.086;2024-03-23T08:06:06;9.23;;;1.52;;
32130;SDS011;18639;50.716;7.086;2024-03-23T08:08:42;3.75;;;1.25;;
32130;SDS011;18639;50.716;7.086;2024-03-23T08:11:10;1.98;;;1.05;;
32130;SDS011;18639;50.716;7.086;2024-03-23T08:13:36;3.28;;;1.30;;
32130;SDS011;18639;50.716;7.086;2024-03-23T08:16:02;1.60;;;0.85;;
32130;SDS011;18639;50.716;7.086;2024-03-23T08:18:28;1.52;;;0.55;;
32130;SDS011;18639;50.716;7.086;2024-03-23T08:21:00;3.17;;;0.75;;
32130;SDS011;18639;50.716;7.086;2024-03-23T08:23:30;0.88;;;0.50;;
32130;SDS011;18639;50.716;7.086;2024-03-23T08:25:59;3.22;;;0.50;;
32130;SDS011;18639;50.716;7.086;2024-03-23T08:28:25;0.57;;;0.50;;
32130;SDS011;18639;50.716;7.086;2024-03-23T08:30:51;3.83;;;0.70;;
32130;SDS011;18639;50.716;7.086;2024-03-23T08:33:17;1.70;;;0.40;;
32130;SDS011;18639;50.716;7.086;2024-03-23T08:35:42;1.65;;;0.60;;
32130;SDS011;18639;50.716;7.086;2024-03-23T08:38:07;0.50;;;0.50;;
32130;SDS011;18639;50.716;7.086;2024-03-23T08:40:33;0.85;;;0.50;;
32130;SDS011;18639;50.716;7.086;2024-03-23T08:42:58;0.30;;;0.30;;
32130;SDS011;18639;50.716;7.086;2024-03-23T08:45:26;0.90;;;0.50;;
32130;SDS011;18639;50.716;7.086;2024-03-23T08:47:52;1.83;;;0.68;;
32130;SDS011;18639;50.716;7.086;2024-03-23T08:50:17;2.80;;;0.90;;
32130;SDS011;18639;50.716;7.086;2024-03-23T08:52:42;2.08;;;0.80;;
32130;SDS011;18639;50.716;7.086;2024-03-23T08:55:08;1.95;;;0.80;;
32130;SDS011;18639;50.716;7.086;2024-03-23T08:57:34;1.83;;;0.90;;
32130;SDS011;18639;50.716;7.086;2024-03-23T09:00:00;2.10;;;1.00;;
32130;SDS011;18639;50.716;7.086;2024-03-23T09:02:25;3.17;;;1.17;;
32130;SDS011;18639;50.716;7.086;2024-03-23T09:04:51;3.38;;;1.30;;
32130;SDS011;18639;50.716;7.086;2024-03-23T09:07:16;4.38;;;1.20;;
32130;SDS011;18639;50.716;7.086;2024-03-23T09:09:41;4.70;;;1.23;;
32130;SDS011;18639;50.716;7.086;2024-03-23T09:12:06;3.35;;;1.55;;
32130;SDS011;18639;50.716;7.086;2024-03-23T09:14:35;4.75;;;1.58;;
32130;SDS011;18639;50.716;7.086;2024-03-23T09:17:01;3.42;;;1.60;;
32130;SDS011;18639;50.716;7.086;2024-03-23T09:19:30;4.30;;;1.48;;
32130;SDS011;18639;50.716;7.086;2024-03-23T09:21:55;3.60;;;1.52;;
32130;SDS011;18639;50.716;7.086;2024-03-23T09:24:21;2.95;;;1.23;;
32130;SDS011;18639;50.716;7.086;2024-03-23T09:26:46;3.25;;;1.55;;
32130;SDS011;18639;50.716;7.086;2024-03-23T09:29:12;4.10;;;1.80;;
32130;SDS011;18639;50.716;7.086;2024-03-23T09:31:37;5.05;;;1.58;;
32130;SDS011;18639;50.716;7.086;2024-03-23T09:34:03;6.07;;;1.25;;
32130;SDS011;18639;50.716;7.086;2024-03-23T09:36:28;3.22;;;1.27;;
32130;SDS011;18639;50.716;7.086;2024-03-23T09:38:54;2.45;;;1.00;;
32130;SDS011;18639;50.716;7.086;2024-03-23T09:41:19;1.60;;;1.23;;
32130;SDS011;18639;50.716;7.086;2024-03-23T09:43:45;2.47;;;0.90;;
32130;SDS011;18639;50.716;7.086;2024-03-23T09:46:13;6.53;;;0.90;;
32130;SDS011;18639;50.716;7.086;2024-03-23T09:48:38;1.00;;;0.70;;
32130;SDS011;18639;50.716;7.086;2024-03-23T09:51:04;2.97;;;0.85;;
32130;SDS011;18639;50.716;7.086;2024-03-23T09:53:29;1.52;;;1.10;;
32130;SDS011;18639;50.716;7.086;2024-03-23T09:55:54;2.92;;;0.80;;
32130;SDS011;18639;50.716;7.086;2024-03-23T09:58:20;2.03;;;0.88;;
32130;SDS011;18639;50.716;7.086;2024-03-23T10:00:48;2.63;;;0.98;;
32130;SDS011;18639;50.716;7.086;2024-03-23T10:03:13;3.10;;;0.90;;
32130;SDS011;18639;50.716;7.086;2024-03-23T10:05:39;2.33;;;1.00;;
32130;SDS011;18639;50.716;7.086;2024-03-23T10:10:39;2.97;;;0.90;;
32130;SDS011;18639;50.716;7.086;2024-03-23T10:13:08;2.45;;;0.63;;
32130;SDS011;18639;50.716;7.086;2024-03-23T10:15:33;3.30;;;0.90;;
32130;SDS011;18639;50.716;7.086;2024-03-23T10:18:06;1.35;;;0.73;;
32130;SDS011;18639;50.716;7.086;2024-03-23T10:20:43;1.88;;;0.75;;
32130;SDS011;18639;50.716;7.086;2024-03-23T10:23:15;1.70;;;0.80;;
32130;SDS011;18639;50.716;7.086;2024-03-23T10:25:41;1.92;;;0.57;;
32130;SDS011;18639;50.716;7.086;2024-03-23T10:28:06;1.55;;;0.80;;
32130;SDS011;18639;50.716;7.086;2024-03-23T10:30:32;0.70;;;0.50;;
32130;SDS011;18639;50.716;7.086;2024-03-23T10:33:06;2.33;;;0.70;;
32130;SDS011;18639;50.716;7.086;2024-03-23T10:35:38;1.77;;;0.60;;
32130;SDS011;18639;50.716;7.086;2024-03-23T10:38:07;1.98;;;0.40;;
32130;SDS011;18639;50.716;7.086;2024-03-23T10:40:36;0.50;;;0.30;;
32130;SDS011;18639;50.716;7.086;2024-03-23T10:43:02;2.10;;;0.43;;
32130;SDS011;18639;50.716;7.086;2024-03-23T10:45:28;1.75;;;0.40;;
32130;SDS011;18639;50.716;7.086;2024-03-23T10:47:54;0.30;;;0.30;;
32130;SDS011;18639;50.716;7.086;2024-03-23T10:50:19;0.30;;;0.30;;
32130;SDS011;18639;50.716;7.086;2024-03-23T10:52:48;1.88;;;0.30;;
32130;SDS011;18639;50.716;7.086;2024-03-23T10:55:15;0.40;;;0.40;;
32130;SDS011;18639;50.716;7.086;2024-03-23T10:57:45;0.35;;;0.35;;
32130;SDS011;18639;50.716;7.086;2024-03-23T11:00:16;2.10;;;0.65;;
32130;SDS011;18639;50.716;7.086;2024-03-23T11:02:41;0.32;;;0.32;;
32130;SDS011;18639;50.716;7.086;2024-03-23T11:07:50;0.30;;;0.30;;
32130;SDS011;18639;50.716;7.086;2024-03-23T11:10:29;0.40;;;0.40;;
32130;SDS011;18639;50.716;7.086;2024-03-23T11:12:56;0.95;;;0.30;;
32130;SDS011;18639;50.716;7.086;2024-03-23T11:15:22;2.17;;;0.43;;
32130;SDS011;18639;50.716;7.086;2024-03-23T11:18:03;5.03;;;0.60;;
32130;SDS011;18639;50.716;7.086;2024-03-23T11:20:33;0.63;;;0.50;;
32130;SDS011;18639;50.716;7.086;2024-03-23T11:22:59;2.60;;;0.60;;
32130;SDS011;18639;50.716;7.086;2024-03-23T11:25:28;1.42;;;0.52;;
32130;SDS011;18639;50.716;7.086;2024-03-23T11:27:58;1.83;;;0.80;;
32130;SDS011;18639;50.716;7.086;2024-03-23T11:30:36;0.57;;;0.52;;
32130;SDS011;18639;50.716;7.086;2024-03-23T11:33:03;0.60;;;0.50;;
32130;SDS011;18639;50.716;7.086;2024-03-23T11:38:10;1.30;;;0.63;;
32130;SDS011;18639;50.716;7.086;2024-03-23T11:40:38;2.65;;;0.40;;
32130;SDS011;18639;50.716;7.086;2024-03-23T11:43:07;0.50;;;0.50;;
32130;SDS011;18639;50.716;7.086;2024-03-23T11:45:37;1.10;;;0.50;;
32130;SDS011;18639;50.716;7.086;2024-03-23T11:48:05;0.95;;;0.50;;
32130;SDS011;18639;50.716;7.086;2024-03-23T11:50:32;2.25;;;0.80;;
32130;SDS011;18639;50.716;7.086;2024-03-23T11:55:47;2.75;;;0.90;;
32130;SDS011;18639;50.716;7.086;2024-03-23T11:58:14;3.35;;;1.25;;
32130;SDS011;18639;50.716;7.086;2024-03-23T12:00:40;1.50;;;1.00;;
32130;SDS011;18639;50.716;7.086;2024-03-23T12:03:06;5.70;;;1.27;;
32130;SDS011;18639;50.716;7.086;2024-03-23T12:05:32;3.80;;;1.17;;
32130;SDS011;18639;50.716;7.086;2024-03-23T12:10:49;2.63;;;0.88;;
32130;SDS011;18639;50.716;7.086;2024-03-23T12:13:19;6.40;;;1.30;;
32130;SDS011;18639;50.716;7.086;2024-03-23T12:15:49;1.42;;;0.60;;
32130;SDS011;18639;50.716;7.086;2024-03-23T12:18:15;2.22;;;0.80;;
32130;SDS011;18639;50.716;7.086;2024-03-23T12:20:41;1.95;;;1.00;;
32130;SDS011;18639;50.716;7.086;2024-03-23T12:23:07;3.58;;;1.00;;
32130;SDS011;18639;50.716;7.086;2024-03-23T12:25:35;4.35;;;1.15;;
32130;SDS011;18639;50.716;7.086;2024-03-23T12:28:00;2.50;;;1.38;;
32130;SDS011;18639;50.716;7.086;2024-03-23T12:30:26;1.90;;;1.02;;
32130;SDS011;18639;50.716;7.086;2024-03-23T12:32:52;3.03;;;1.20;;
32130;SDS011;18639;50.716;7.086;2024-03-23T12:35:17;1.88;;;1.10;;
32130;SDS011;18639;50.716;7.086;2024-03-23T12:37:43;1.13;;;0.80;;
32130;SDS011;18639;50.716;7.086;2024-03-23T12:40:08;2.38;;;1.13;;
32130;SDS011;18639;50.716;7.086;2024-03-23T12:42:34;2.35;;;1.08;;
32130;SDS011;18639;50.716;7.086;2024-03-23T12:44:59;3.05;;;1.13;;
32130;SDS011;18639;50.716;7.086;2024-03-23T12:47:25;3.40;;;0.90;;
32130;SDS011;18639;50.716;7.086;2024-03-23T12:49:50;2.65;;;1.25;;
32130;SDS011;18639;50.716;7.086;2024-03-23T12:52:17;5.65;;;1.08;;
32130;SDS011;18639;50.716;7.086;2024-03-23T12:54:42;4.70;;;0.80;;
32130;SDS011;18639;50.716;7.086;2024-03-23T12:57:07;0.50;;;0.40;;
32130;SDS011;18639;50.716;7.086;2024-03-23T12:59:33;1.05;;;0.45;;
32130;SDS011;18639;50.716;7.086;2024-03-23T13:02:00;0.70;;;0.50;;
32130;SDS011;18639;50.716;7.086;2024-03-23T13:04:25;0.32;;;0.30;;
32130;SDS011;18639;50.716;7.086;2024-03-23T13:06:51;0.68;;;0.60;;
32130;SDS011;18639;50.716;7.086;2024-03-23T13:09:16;0.40;;;0.40;;
32130;SDS011;18639;50.716;7.086;2024-03-23T13:11:42;2.53;;;0.60;;
32130;SDS011;18639;50.716;7.086;2024-03-23T13:14:07;1.00;;;0.55;;
32130;SDS011;18639;50.716;7.086;2024-03-23T13:16:32;0.98;;;0.55;;
32130;SDS011;18639;50.716;7.086;2024-03-23T13:18:58;0.43;;;0.43;;
32130;SDS011;18639;50.716;7.086;2024-03-23T13:21:23;0.98;;;0.60;;
32130;SDS011;18639;50.716;7.086;2024-03-23T13:23:48;2.38;;;0.60;;
32130;SDS011;18639;50.716;7.086;2024-03-23T13:26:15;0.35;;;0.35;;
32130;SDS011;18639;50.716;7.086;2024-03-23T13:28:40;0.40;;;0.40;;
32130;SDS011;18639;50.716;7.086;2024-03-23T13:31:06;1.40;;;0.40;;
32130;SDS011;18639;50.716;7.086;2024-03-23T13:33:33;0.77;;;0.40;;
32130;SDS011;18639;50.716;7.086;2024-03-23T13:35:58;0.47;;;0.45;;
32130;SDS011;18639;50.716;7.086;2024-03-23T13:38:24;0.70;;;0.47;;
32130;SDS011;18639;50.716;7.086;2024-03-23T13:40:53;0.70;;;0.43;;
32130;SDS011;18639;50.716;7.086;2024-03-23T13:43:19;2.45;;;0.63;;
32130;SDS011;18639;50.716;7.086;2024-03-23T13:45:48;1.02;;;0.70;;
32130;SDS011;18639;50.716;7.086;2024-03-23T13:48:15;0.77;;;0.57;;
32130;SDS011;18639;50.716;7.086;2024-03-23T13:50:41;2.38;;;0.63;;
32130;SDS011;18639;50.716;7.086;2024-03-23T13:53:06;0.85;;;0.63;;
32130;SDS011;18639;50.716;7.086;2024-03-23T13:55:33;0.60;;;0.50;;
32130;SDS011;18639;50.716;7.086;2024-03-23T13:57:58;2.13;;;0.75;;
32130;SDS011;18639;50.716;7.086;2024-03-23T14:00:24;0.95;;;0.60;;
32130;SDS011;18639;50.716;7.086;2024-03-23T14:02:49;2.88;;;0.88;;
32130;SDS011;18639;50.716;7.086;2024-03-23T14:05:14;2.00;;;0.82;;
32130;SDS011;18639;50.716;7.086;2024-03-23T14:07:40;1.80;;;0.60;;
32130;SDS011;18639;50.716;7.086;2024-03-23T14:10:05;0.95;;;0.63;;
32130;SDS011;18639;50.716;7.086;2024-03-23T14:12:31;1.52;;;0.70;;
32130;SDS011;18639;50.716;7.086;2024-03-23T14:14:57;2.45;;;0.80;;
32130;SDS011;18639;50.716;7.086;2024-03-23T14:17:22;1.15;;;0.73;;
32130;SDS011;18639;50.716;7.086;2024-03-23T14:19:47;1.63;;;0.77;;
32130;SDS011;18639;50.716;7.086;2024-03-23T14:22:12;1.27;;;0.80;;
32130;SDS011;18639;50.716;7.086;2024-03-23T14:24:38;0.50;;;0.50;;
32130;SDS011;18639;50.716;7.086;2024-03-23T14:27:03;1.95;;;0.77;;
32130;SDS011;18639;50.716;7.086;2024-03-23T14:29:30;2.30;;;0.93;;
32130;SDS011;18639;50.716;7.086;2024-03-23T14:31:56;2.95;;;0.63;;
32130;SDS011;18639;50.716;7.086;2024-03-23T14:34:21;2.28;;;0.90;;
32130;SDS011;18639;50.716;7.086;2024-03-23T14:36:46;1.17;;;0.65;;
32130;SDS011;18639;50.716;7.086;2024-03-23T14:39:12;2.03;;;0.90;;
32130;SDS011;18639;50.716;7.086;2024-03-23T14:41:37;0.55;;;0.50;;
32130;SDS011;18639;50.716;7.086;2024-03-23T14:44:03;1.30;;;0.55;;
32130;SDS011;18639;50.716;7.086;2024-03-23T14:46:28;11.10;;;0.57;;
32130;SDS011;18639;50.716;7.086;2024-03-23T14:48:54;0.88;;;0.57;;
32130;SDS011;18639;50.716;7.086;2024-03-23T14:51:20;4.22;;;0.40;;
32130;SDS011;18639;50.716;7.086;2024-03-23T14:53:47;0.60;;;0.40;;
32130;SDS011;18639;50.716;7.086;2024-03-23T14:56:13;0.52;;;0.40;;
32130;SDS011;18639;50.716;7.086;2024-03-23T14:58:40;0.65;;;0.40;;
32130;SDS011;18639;50.716;7.086;2024-03-23T15:01:07;2.47;;;0.70;;
32130;SDS011;18639;50.716;7.086;2024-03-23T15:03:36;2.13;;;0.60;;
32130;SDS011;18639;50.716;7.086;2024-03-23T15:06:05;0.60;;;0.40;;
32130;SDS011;18639;50.716;7.086;2024-03-23T15:08:31;0.55;;;0.45;;
32130;SDS011;18639;50.716;7.086;2024-03-23T15:10:59;0.50;;;0.50;;
32130;SDS011;18639;50.716;7.086;2024-03-23T15:13:25;1.27;;;0.60;;
32130;SDS011;18639;50.716;7.086;2024-03-23T15:15:51;0.40;;;0.40;;
32130;SDS011;18639;50.716;7.086;2024-03-23T15:18:17;0.98;;;0.40;;
32130;SDS011;18639;50.716;7.086;2024-03-23T15:20:53;0.60;;;0.55;;
32130;SDS011;18639;50.716;7.086;2024-03-23T15:23:19;0.38;;;0.30;;
32130;SDS011;18639;50.716;7.086;2024-03-23T15:25:44;0.38;;;0.38;;
32130;SDS011;18639;50.716;7.086;2024-03-23T15:28:10;0.32;;;0.30;;
32130;SDS011;18639;50.716;7.086;2024-03-23T15:30:35;1.15;;;0.38;;
32130;SDS011;18639;50.716;7.086;2024-03-23T15:33:00;0.43;;;0.30;;
32130;SDS011;18639;50.716;7.086;2024-03-23T15:35:25;0.22;;;0.22;;
32130;SDS011;18639;50.716;7.086;2024-03-23T15:37:51;0.22;;;0.22;;
32130;SDS011;18639;50.716;7.086;2024-03-23T15:40:16;0.30;;;0.30;;
32130;SDS011;18639;50.716;7.086;2024-03-23T15:42:42;0.30;;;0.30;;
32130;SDS011;18639;50.716;7.086;2024-03-23T15:45:07;0.30;;;0.30;;
32130;SDS011;18639;50.716;7.086;2024-03-23T15:47:34;0.20;;;0.20;;
32130;SDS011;18639;50.716;7.086;2024-03-23T15:50:00;0.30;;;0.30;;